createdAt,value
2023-04-23T00:02:02.811Z,20.58
2023-04-23T00:06:08.013Z,21.20
2023-04-23T00:10:10.667Z,22.23
2023-04-23T00:14:13.047Z,19.55
2023-04-23T00:18:17.101Z,21.15
2023-04-23T00:22:20.451Z,22.45
2023-04-23T00:26:22.466Z,21.77
2023-04-23T00:30:24.666Z,21.42
2023-04-23T00:34:26.767Z,21.20
2023-04-23T00:38:28.802Z,21.02
2023-04-23T00:42:31.656Z,20.27
2023-04-23T00:46:33.872Z,20.75
2023-04-23T00:50:35.989Z,20.35
2023-04-23T00:54:38.064Z,20.92
2023-04-23T00:58:41.276Z,20.10
2023-04-23T01:02:44.418Z,21.73
2023-04-23T01:06:49.973Z,21.45
2023-04-23T01:10:53.277Z,20.52
2023-04-23T01:14:55.856Z,21.38
2023-04-23T01:18:58.477Z,20.60
2023-04-23T01:23:00.620Z,20.67
2023-04-23T01:27:02.758Z,19.58
2023-04-23T01:31:05.465Z,19.15
2023-04-23T01:35:08.227Z,19.02
2023-04-23T01:39:10.482Z,17.40
2023-04-23T01:43:12.515Z,17.63
2023-04-23T01:47:16.505Z,18.77
2023-04-23T01:51:19.102Z,18.13
2023-04-23T01:55:21.512Z,19.55
2023-04-23T01:59:23.600Z,18.77
2023-04-23T02:03:25.846Z,18.25
2023-04-23T02:07:28.088Z,17.13
2023-04-23T02:11:30.333Z,17.67
2023-04-23T02:15:32.597Z,18.33
2023-04-23T02:19:35.849Z,19.63
2023-04-23T02:23:38.710Z,18.65
2023-04-23T02:27:41.199Z,19.30
2023-04-23T02:31:43.228Z,17.58
2023-04-23T02:35:45.349Z,18.17
2023-04-23T02:39:47.376Z,18.13
2023-04-23T02:43:49.442Z,17.23
2023-04-23T02:47:53.377Z,16.50
2023-04-23T02:51:55.685Z,16.65
2023-04-23T02:55:57.808Z,17.15
2023-04-23T02:59:59.874Z,17.95
2023-04-23T03:04:09.544Z,18.05
2023-04-23T03:08:11.771Z,18.35
2023-04-23T03:12:13.914Z,17.60
2023-04-23T03:16:16.747Z,18.52
2023-04-23T03:20:19.574Z,17.13
2023-04-23T03:24:22.011Z,17.95
2023-04-23T03:28:24.188Z,18.50
2023-04-23T03:32:26.228Z,16.05
2023-04-23T03:36:28.408Z,16.42
2023-04-23T03:40:31.057Z,15.55
2023-04-23T03:44:37.104Z,16.27
2023-04-23T03:48:39.296Z,17.77
2023-04-23T03:52:47.042Z,16.07
2023-04-23T03:56:59.697Z,16.45
2023-04-23T04:01:04.237Z,15.93
2023-04-23T04:05:07.409Z,15.57
2023-04-23T04:09:09.602Z,15.07
2023-04-23T04:13:11.693Z,14.15
2023-04-23T04:17:15.941Z,14.40
2023-04-23T04:21:19.070Z,14.48
2023-04-23T04:25:22.296Z,14.05
2023-04-23T04:29:24.428Z,14.82
2023-04-23T04:33:26.775Z,15.07
2023-04-23T04:37:28.724Z,13.43
2023-04-23T04:41:30.921Z,15.55
2023-04-23T04:45:33.087Z,14.05
2023-04-23T04:49:36.030Z,13.73
2023-04-23T04:53:38.191Z,14.15
2023-04-23T04:57:40.355Z,13.52
2023-04-23T05:01:43.229Z,13.38
2023-04-23T05:05:45.799Z,13.82
2023-04-23T05:09:47.821Z,12.77
2023-04-23T05:13:49.908Z,14.98
2023-04-23T05:17:53.762Z,13.88
2023-04-23T05:21:56.605Z,12.98
2023-04-23T05:25:58.883Z,12.88
2023-04-23T05:30:06.126Z,13.20
2023-04-23T05:34:08.230Z,12.32
2023-04-23T05:38:10.497Z,13.40
2023-04-23T05:42:13.235Z,12.85
2023-04-23T05:46:15.253Z,11.07
2023-04-23T05:50:18.247Z,12.25
2023-04-23T05:54:20.304Z,11.98
2023-04-23T05:58:22.732Z,11.25
2023-04-23T06:02:25.478Z,11.07
2023-04-23T06:06:28.034Z,10.73
2023-04-23T06:10:30.268Z,11.02
2023-04-23T06:14:32.415Z,10.48
2023-04-23T06:18:35.465Z,10.50
2023-04-23T06:22:37.567Z,11.20
2023-04-23T06:26:39.572Z,10.50
2023-04-23T06:30:48.000Z,8.73
2023-04-23T06:35:00.310Z,8.20
2023-04-23T06:39:04.169Z,8.60
2023-04-23T06:43:07.909Z,8.98
2023-04-23T06:47:28.290Z,7.90
2023-04-23T06:51:32.028Z,7.40
2023-04-23T06:55:34.263Z,8.20
2023-04-23T06:59:36.307Z,7.38
2023-04-23T07:03:38.553Z,7.43
2023-04-23T07:07:43.471Z,8.13
2023-04-23T07:11:45.689Z,7.55
2023-04-23T07:15:49.061Z,7.63
2023-04-23T07:19:51.310Z,8.80
2023-04-23T07:23:54.393Z,7.60
2023-04-23T07:27:56.851Z,7.38
2023-04-23T07:31:59.173Z,6.63
2023-04-23T07:36:01.643Z,7.32
2023-04-23T07:40:05.527Z,7.97
2023-04-23T07:44:08.607Z,7.07
2023-04-23T07:48:10.830Z,7.55
2023-04-23T07:52:12.850Z,7.05
2023-04-23T07:56:14.927Z,6.43
2023-04-23T08:00:17.237Z,5.82
2023-04-23T08:04:19.656Z,5.18
2023-04-23T08:08:21.868Z,5.68
2023-04-23T08:12:23.891Z,5.30
2023-04-23T08:16:26.284Z,4.90
2023-04-23T08:20:28.555Z,4.45
2023-04-23T08:24:30.956Z,4.32
2023-04-23T08:28:33.091Z,4.75
2023-04-23T08:32:35.272Z,4.55
2023-04-23T08:36:37.862Z,3.92
2023-04-23T08:40:41.411Z,4.35
2023-04-23T08:44:46.688Z,3.75
2023-04-23T08:48:52.896Z,4.20
2023-04-23T08:52:56.632Z,2.80
2023-04-23T08:56:59.390Z,4.25
2023-04-23T09:01:02.010Z,3.25
2023-04-23T09:05:05.143Z,2.97
2023-04-23T09:09:08.178Z,3.45
2023-04-23T09:13:12.603Z,3.58
2023-04-23T09:17:14.607Z,3.03
2023-04-23T09:21:16.770Z,2.92
2023-04-23T09:25:20.622Z,3.60
2023-04-23T09:29:24.240Z,3.10
2023-04-23T09:33:28.424Z,2.83
2023-04-23T09:37:31.082Z,3.47
2023-04-23T09:41:33.248Z,2.97
2023-04-23T09:45:35.866Z,3.00
2023-04-23T09:49:48.547Z,3.00
2023-04-23T09:53:50.851Z,2.88
2023-04-23T09:57:53.157Z,2.30
2023-04-23T10:01:55.885Z,3.25
2023-04-23T10:06:02.488Z,2.85
2023-04-23T10:10:05.483Z,2.65
2023-04-23T10:14:09.056Z,2.65
2023-04-23T10:18:11.333Z,3.05
2023-04-23T10:22:19.430Z,3.05
2023-04-23T10:26:24.133Z,3.15
2023-04-23T10:30:26.935Z,3.28
2023-04-23T10:34:30.736Z,3.17
2023-04-23T10:38:32.938Z,3.13
2023-04-23T10:42:35.814Z,3.45
2023-04-23T10:46:39.191Z,3.25
2023-04-23T10:51:00.320Z,3.67
2023-04-23T10:55:16.353Z,3.45
2023-04-23T10:59:20.653Z,3.85
2023-04-23T11:03:31.978Z,3.63
2023-04-23T11:07:33.999Z,3.38
2023-04-23T11:11:40.639Z,4.07
2023-04-23T11:15:42.980Z,3.50
2023-04-23T11:20:03.849Z,2.97
2023-04-23T11:24:07.810Z,3.00
2023-04-23T11:28:10.239Z,3.25
2023-04-23T11:32:15.582Z,3.72
2023-04-23T11:36:17.746Z,2.80
2023-04-23T11:40:20.351Z,7.43
2023-04-23T11:44:22.463Z,3.65
2023-04-23T11:48:24.646Z,3.25
2023-04-23T11:52:27.041Z,8.70
2023-04-23T11:56:32.421Z,3.28
2023-04-23T12:00:34.408Z,4.57
2023-04-23T12:04:37.503Z,3.55
2023-04-23T12:08:43.171Z,6.28
2023-04-23T12:12:49.496Z,5.55
2023-04-23T12:16:54.440Z,4.38
2023-04-23T12:21:06.711Z,3.00
2023-04-23T12:25:09.553Z,3.85
2023-04-23T12:29:13.700Z,3.00
2023-04-23T12:33:16.176Z,5.43
2023-04-23T12:37:18.256Z,2.83
2023-04-23T12:41:20.346Z,3.10
2023-04-23T12:45:22.404Z,3.20
2023-04-23T12:49:25.090Z,3.38
2023-04-23T12:53:27.979Z,4.18
2023-04-23T12:57:29.934Z,3.70
2023-04-23T13:01:33.184Z,3.33
2023-04-23T13:05:35.533Z,3.10
2023-04-23T13:09:37.745Z,3.25
2023-04-23T13:13:39.736Z,3.40
2023-04-23T13:17:41.972Z,3.22
2023-04-23T13:21:44.793Z,3.60
2023-04-23T13:25:46.842Z,2.70
2023-04-23T13:29:48.888Z,2.97
2023-04-23T13:33:50.922Z,2.72
2023-04-23T13:37:52.953Z,3.95
2023-04-23T13:42:08.824Z,3.22
2023-04-23T13:46:12.072Z,3.13
2023-04-23T13:50:14.215Z,3.30
2023-04-23T13:54:16.232Z,2.83
2023-04-23T13:58:18.422Z,2.78
2023-04-23T14:02:20.676Z,3.00
2023-04-23T14:06:23.094Z,2.92
2023-04-23T14:10:25.175Z,4.35
2023-04-23T14:14:27.439Z,3.33
2023-04-23T14:18:29.556Z,2.90
2023-04-23T14:22:32.035Z,3.80
2023-04-23T14:26:48.127Z,3.35
2023-04-23T14:30:54.547Z,2.72
2023-04-23T14:34:56.592Z,2.92
2023-04-23T14:39:02.454Z,3.40
2023-04-23T14:43:15.128Z,3.20
2023-04-23T14:47:19.234Z,2.90
2023-04-23T14:51:21.067Z,3.17
2023-04-23T14:55:23.292Z,2.83
2023-04-23T14:59:25.609Z,3.70
2023-04-23T15:03:27.984Z,3.90
2023-04-23T15:07:31.687Z,3.58
2023-04-23T15:11:34.031Z,3.50
2023-04-23T15:15:44.658Z,3.30
2023-04-23T15:19:47.368Z,3.65
2023-04-23T15:23:49.539Z,3.42
2023-04-23T15:27:57.692Z,2.65
2023-04-23T15:31:59.999Z,3.38
2023-04-23T15:36:02.111Z,3.47
2023-04-23T15:40:04.446Z,3.67
2023-04-23T15:44:08.977Z,3.38
2023-04-23T15:48:11.028Z,3.55
2023-04-23T15:52:13.170Z,3.50
2023-04-23T15:56:15.236Z,4.07
2023-04-23T16:00:18.521Z,6.10
2023-04-23T16:04:20.754Z,3.33
2023-04-23T16:08:22.875Z,3.15
2023-04-23T16:12:24.965Z,3.45
2023-04-23T16:16:27.095Z,3.33
2023-04-23T16:20:29.312Z,3.80
2023-04-23T16:24:31.385Z,3.92
2023-04-23T16:28:33.393Z,4.35
2023-04-23T16:32:36.364Z,3.50
2023-04-23T16:36:38.805Z,3.45
2023-04-23T16:40:41.290Z,3.20
2023-04-23T16:44:43.519Z,4.20
2023-04-23T16:48:46.881Z,3.80
2023-04-23T16:52:48.984Z,4.97
2023-04-23T16:56:51.330Z,3.78
2023-04-23T17:00:53.229Z,3.72
2023-04-23T17:04:55.465Z,3.85
2023-04-23T17:09:00.053Z,3.22
2023-04-23T17:13:02.281Z,3.78
2023-04-23T17:17:04.333Z,3.75
2023-04-23T17:21:06.468Z,3.78
2023-04-23T17:25:09.101Z,3.80
2023-04-23T17:29:11.558Z,4.18
2023-04-23T17:33:14.036Z,3.90
2023-04-23T17:37:16.282Z,3.88
2023-04-23T17:41:19.142Z,4.22
2023-04-23T17:45:21.372Z,4.82
2023-04-23T17:49:23.499Z,6.63
2023-04-23T17:53:25.677Z,6.78
2023-04-23T17:57:27.403Z,7.53
2023-04-23T18:01:29.582Z,7.13
2023-04-23T18:05:32.310Z,6.45
2023-04-23T18:09:34.619Z,6.30
2023-04-23T18:13:36.769Z,5.90
2023-04-23T18:17:39.489Z,6.60
2023-04-23T18:21:41.761Z,5.95
2023-04-23T18:25:43.809Z,7.88
2023-04-23T18:29:46.340Z,10.98
2023-04-23T18:33:53.832Z,10.45
2023-04-23T18:38:06.656Z,10.57
2023-04-23T18:42:08.725Z,9.68
2023-04-23T18:46:11.923Z,8.07
2023-04-23T18:50:44.123Z,8.13
2023-04-23T18:54:46.173Z,6.88
2023-04-23T18:58:48.268Z,6.88
2023-04-23T19:02:50.447Z,6.85
2023-04-23T19:06:52.574Z,6.75
2023-04-23T19:10:55.847Z,5.93
2023-04-23T19:14:59.844Z,6.57
2023-04-23T19:19:03.338Z,6.28
2023-04-23T19:23:05.398Z,6.85
2023-04-23T19:27:07.550Z,6.10
2023-04-23T19:31:10.500Z,7.10
2023-04-23T19:35:12.595Z,7.45
2023-04-23T19:39:14.665Z,7.63
2023-04-23T19:43:16.806Z,7.30
2023-04-23T19:47:19.150Z,8.13
2023-04-23T19:51:27.800Z,8.63
2023-04-23T19:55:29.845Z,7.78
2023-04-23T19:59:32.022Z,9.35
2023-04-23T20:03:34.869Z,9.60
2023-04-23T20:07:37.837Z,7.88
2023-04-23T20:11:39.962Z,8.45
2023-04-23T20:15:42.194Z,7.78
2023-04-23T20:19:44.993Z,8.85
2023-04-23T20:23:47.096Z,8.35
2023-04-23T20:27:50.609Z,8.43
2023-04-23T20:31:52.727Z,7.68
2023-04-23T20:35:56.829Z,8.77
2023-04-23T20:39:59.040Z,8.50
2023-04-23T20:44:02.057Z,7.93
2023-04-23T20:48:04.163Z,8.43
2023-04-23T20:52:07.403Z,7.78
2023-04-23T20:56:09.373Z,9.50
2023-04-23T21:00:14.461Z,9.60
2023-04-23T21:04:16.726Z,9.15
2023-04-23T21:08:18.963Z,9.20
2023-04-23T21:12:21.256Z,9.27
2023-04-23T21:16:23.383Z,9.27
2023-04-23T21:20:25.558Z,8.18
2023-04-23T21:24:27.779Z,10.20
2023-04-23T21:28:29.990Z,10.48
2023-04-23T21:32:32.073Z,9.93
2023-04-23T21:36:34.015Z,8.68
2023-04-23T21:40:40.246Z,9.88
2023-04-23T21:44:42.556Z,9.10
2023-04-23T21:48:44.580Z,9.13
2023-04-23T21:52:46.689Z,9.07
2023-04-23T21:56:48.851Z,10.68
2023-04-23T22:00:51.613Z,9.38
2023-04-23T22:04:53.713Z,9.80
2023-04-23T22:08:56.809Z,9.88
2023-04-23T22:12:58.857Z,9.43
2023-04-23T22:17:02.566Z,8.20
2023-04-23T22:21:04.632Z,8.75
2023-04-23T22:25:08.680Z,8.75
2023-04-23T22:29:10.777Z,8.73
2023-04-23T22:33:12.925Z,8.55
2023-04-23T22:37:15.753Z,8.55
2023-04-23T22:41:17.751Z,8.27
2023-04-23T22:45:19.782Z,8.07
2023-04-23T22:49:21.742Z,9.40
2023-04-23T22:53:23.821Z,8.77
2023-04-23T22:57:26.162Z,8.65
2023-04-23T23:01:28.245Z,8.45
2023-04-23T23:05:30.308Z,8.30
2023-04-23T23:09:32.473Z,8.65
2023-04-23T23:13:34.469Z,8.43
2023-04-23T23:17:36.610Z,8.98
2023-04-23T23:21:38.774Z,8.73
2023-04-23T23:25:41.088Z,8.30
2023-04-23T23:29:43.485Z,7.95
2023-04-23T23:33:45.933Z,8.63
2023-04-23T23:37:47.873Z,9.10
2023-04-23T23:41:49.981Z,8.60
2023-04-23T23:45:52.066Z,10.00
2023-04-23T23:49:54.080Z,10.00
2023-04-23T23:53:56.094Z,9.55
2023-04-23T23:57:58.544Z,9.15
